Time;durP1;ratioP1;P1;durP2;ratioP2;P2;SDS_P1;SDS_P2;PMS_P1;PMS_P2;Temp;Humidity;BMP_temperature;BMP_pressure;BME280_temperature;BME280_humidity;BME280_pressure;Samples;Min_cycle;Max_cycle;Signal;HPM_P1;HPM_P2
2022/01/24 00:01:56;;;;;;;26.33;15.77;;;6.30;99.90;;;;;;5090918;28;20020;-44
2022/01/24 00:04:22;;;;;;;24.00;14.50;;;6.20;99.90;;;;;;5091076;28;20026;-44
2022/01/24 00:06:49;;;;;;;24.92;14.95;;;6.30;99.90;;;;;;5062292;28;20428;-44
2022/01/24 00:09:15;;;;;;;31.08;17.20;;;6.30;99.90;;;;;;5049337;28;20025;-45
2022/01/24 00:27:19;;;;;;;28.27;16.63;;;6.20;99.90;;;;;;5073207;28;20034;-43
2022/01/24 00:29:44;;;;;;;27.95;16.23;;;6.20;99.90;;;;;;5090103;28;20027;-44
2022/01/24 00:32:09;;;;;;;30.20;17.38;;;6.20;99.90;;;;;;5090017;28;20498;-44
2022/01/24 00:34:35;;;;;;;28.17;16.58;;;6.20;99.90;;;;;;5089840;28;20032;-44
2022/01/24 00:37:01;;;;;;;27.90;16.23;;;6.20;99.90;;;;;;5088499;28;20054;-44
2022/01/24 00:39:28;;;;;;;27.15;16.63;;;6.20;99.90;;;;;;5088947;28;20024;-45
2022/01/24 00:47:29;;;;;;;27.27;16.77;;;6.20;99.90;;;;;;5089593;28;20113;-43
2022/01/24 00:55:17;;;;;;;27.98;15.40;;;6.20;99.90;;;;;;5078012;28;20410;-43
2022/01/24 00:57:42;;;;;;;27.83;14.38;;;6.20;99.90;;;;;;5083844;28;20020;-44
2022/01/24 01:00:09;;;;;;;29.33;16.17;;;6.20;99.90;;;;;;5088617;28;20449;-43
2022/01/24 01:02:34;;;;;;;28.20;16.15;;;6.20;99.90;;;;;;5089149;28;20035;-44
2022/01/24 01:05:12;;;;;;;23.25;13.95;;;6.20;99.90;;;;;;5089593;28;20032;-43
2022/01/24 01:07:52;;;;;;;23.42;13.90;;;6.20;99.90;;;;;;5087319;28;20032;-43
2022/01/24 01:18:30;;;;;;;23.20;13.23;;;6.20;99.90;;;;;;5088695;28;20081;-44
2022/01/24 01:21:08;;;;;;;21.63;13.15;;;6.30;99.90;;;;;;5089056;28;20024;-44
2022/01/24 01:23:37;;;;;;;21.48;12.07;;;6.20;99.90;;;;;;5082844;28;20017;-44
2022/01/24 01:26:07;;;;;;;23.60;12.20;;;6.20;99.90;;;;;;5078245;28;20024;-44
2022/01/24 01:28:34;;;;;;;20.88;11.35;;;6.20;99.90;;;;;;5088557;28;20028;-44
2022/01/24 01:31:05;;;;;;;20.65;10.93;;;6.20;99.90;;;;;;5088705;28;20103;-44
2022/01/24 01:34:00;;;;;;;22.75;12.00;;;6.20;99.90;;;;;;5087618;28;20078;-44
2022/01/24 01:53:03;;;;;;;16.35;9.43;;;6.20;99.90;;;;;;5089081;28;20563;-43
2022/01/24 01:57:57;;;;;;;17.83;10.68;;;6.20;99.90;;;;;;5084809;28;20381;-44
2022/01/24 02:00:22;;;;;;;20.02;10.88;;;6.20;99.90;;;;;;5088452;28;20028;-43
2022/01/24 02:02:48;;;;;;;19.55;12.00;;;6.20;99.90;;;;;;5088554;28;20028;-43
2022/01/24 02:05:15;;;;;;;22.85;12.63;;;6.20;99.90;;;;;;5088438;28;20032;-43
2022/01/24 02:07:49;;;;;;;21.70;12.23;;;6.20;99.90;;;;;;5087880;28;20176;-44
2022/01/24 02:10:19;;;;;;;20.00;12.18;;;6.10;99.90;;;;;;5088073;28;20055;-43
2022/01/24 02:12:45;;;;;;;22.17;11.50;;;6.20;99.90;;;;;;5092629;28;20024;-43
2022/01/24 02:15:15;;;;;;;22.33;11.95;;;6.20;99.90;;;;;;5092537;28;20016;-44
2022/01/24 02:20:42;;;;;;;19.77;11.75;;;6.10;99.90;;;;;;5092496;28;20031;-45
2022/01/24 02:23:20;;;;;;;19.55;11.40;;;6.10;99.90;;;;;;5091417;28;20397;-43
2022/01/24 02:25:46;;;;;;;21.45;12.10;;;6.10;99.90;;;;;;5080121;28;20021;-43
2022/01/24 02:28:13;;;;;;;20.23;11.95;;;6.10;99.90;;;;;;5089448;28;20039;-43
2022/01/24 02:33:23;;;;;;;22.80;13.35;;;6.10;99.90;;;;;;5092310;28;20035;-43
2022/01/24 02:35:48;;;;;;;24.35;12.68;;;6.10;99.90;;;;;;5092109;28;20020;-43
2022/01/24 02:38:40;;;;;;;26.38;12.45;;;6.10;99.90;;;;;;5091367;28;20389;-43
2022/01/24 02:49:27;;;;;;;23.05;13.98;;;6.10;99.90;;;;;;5091274;28;20043;-44
2022/01/24 02:52:06;;;;;;;26.58;13.80;;;6.10;99.90;;;;;;5092143;28;20051;-43
2022/01/24 02:54:33;;;;;;;24.73;13.60;;;6.10;99.90;;;;;;5084326;28;20031;-43
2022/01/24 02:56:59;;;;;;;27.23;13.88;;;6.00;99.90;;;;;;5083411;28;20024;-43
2022/01/24 02:59:25;;;;;;;26.60;13.52;;;6.00;99.90;;;;;;5091229;28;20022;-43
2022/01/24 03:01:51;;;;;;;25.15;13.68;;;6.00;99.90;;;;;;5091876;28;20024;-43
2022/01/24 03:04:17;;;;;;;27.38;13.80;;;6.00;99.90;;;;;;5091519;28;20036;-44
2022/01/24 03:06:43;;;;;;;29.33;14.70;;;6.00;99.90;;;;;;5091652;28;20066;-43
2022/01/24 03:09:09;;;;;;;24.77;13.10;;;6.00;99.90;;;;;;5090636;28;20032;-43
2022/01/24 03:11:57;;;;;;;26.58;13.98;;;6.00;99.90;;;;;;5091325;28;20589;-43
2022/01/24 03:14:25;;;;;;;26.15;13.40;;;6.00;99.90;;;;;;5091441;28;20024;-44
2022/01/24 03:16:51;;;;;;;26.02;13.90;;;6.00;99.90;;;;;;5091698;28;20512;-44
2022/01/24 03:19:17;;;;;;;32.83;15.85;;;6.00;99.90;;;;;;5090436;28;20024;-44
2022/01/24 03:21:43;;;;;;;33.92;17.27;;;6.00;99.90;;;;;;5091334;28;20032;-45
2022/01/24 03:24:10;;;;;;;30.63;16.65;;;6.00;99.90;;;;;;5071812;28;20035;-44
2022/01/24 03:26:35;;;;;;;35.13;16.45;;;6.00;99.90;;;;;;5063854;28;20032;-45
2022/01/24 03:29:01;;;;;;;29.35;16.52;;;6.00;99.90;;;;;;5060852;28;20021;-43
2022/01/24 03:31:27;;;;;;;38.38;19.77;;;6.10;99.90;;;;;;5060035;28;20021;-44
2022/01/24 03:33:52;;;;;;;40.08;19.95;;;6.10;99.90;;;;;;5060127;28;20092;-43
2022/01/24 03:36:18;;;;;;;37.35;19.60;;;6.00;99.90;;;;;;5061749;28;20378;-43
2022/01/24 03:38:43;;;;;;;41.13;20.98;;;6.10;99.90;;;;;;5063135;28;20040;-44
2022/01/24 03:41:09;;;;;;;37.10;19.13;;;6.10;99.90;;;;;;5070778;28;20025;-43
2022/01/24 03:43:35;;;;;;;38.75;21.10;;;6.00;99.90;;;;;;5061711;28;20463;-44
2022/01/24 03:48:50;;;;;;;43.85;21.45;;;6.00;99.90;;;;;;5049925;28;20040;-43
2022/01/24 03:51:17;;;;;;;46.85;22.70;;;6.00;99.90;;;;;;5065736;28;20052;-45
2022/01/24 03:53:44;;;;;;;42.08;21.40;;;6.00;99.90;;;;;;5054715;28;20017;-43
2022/01/24 03:56:10;;;;;;;38.80;20.30;;;6.00;99.90;;;;;;5080998;28;20041;-46
2022/01/24 03:58:36;;;;;;;48.78;22.60;;;6.00;99.90;;;;;;5090180;28;20031;-44
2022/01/24 04:01:05;;;;;;;43.30;22.15;;;6.00;99.90;;;;;;5090527;28;20028;-44
2022/01/24 04:03:31;;;;;;;38.47;20.35;;;6.10;99.90;;;;;;5089710;28;20393;-43
2022/01/24 04:05:57;;;;;;;39.83;21.90;;;6.00;99.90;;;;;;5089339;28;20027;-44
2022/01/24 04:08:22;;;;;;;40.00;20.70;;;6.00;99.90;;;;;;5089875;28;20024;-44
2022/01/24 04:10:52;;;;;;;45.63;22.05;;;6.10;99.90;;;;;;5090071;28;20169;-43
2022/01/24 04:15:59;;;;;;;43.97;22.33;;;6.10;99.90;;;;;;5090484;28;20032;-43
2022/01/24 04:18:35;;;;;;;43.40;21.25;;;6.00;99.90;;;;;;5089507;28;20023;-44
2022/01/24 04:23:49;;;;;;;44.22;21.50;;;6.10;99.90;;;;;;5084537;28;20394;-44
2022/01/24 04:26:16;;;;;;;43.17;22.33;;;6.00;99.90;;;;;;5081351;28;20107;-44
2022/01/24 04:28:41;;;;;;;42.42;21.67;;;6.10;99.90;;;;;;5089481;28;20548;-44
2022/01/24 04:31:08;;;;;;;53.30;24.05;;;6.10;99.90;;;;;;5089990;28;20024;-43
2022/01/24 04:33:33;;;;;;;46.33;21.35;;;6.10;99.90;;;;;;5088768;28;20077;-43
2022/01/24 04:35:59;;;;;;;47.80;23.20;;;6.10;99.90;;;;;;5089970;28;20035;-44
2022/01/24 04:38:25;;;;;;;49.47;24.08;;;6.00;99.90;;;;;;5089284;28;20171;-44
2022/01/24 04:40:56;;;;;;;46.60;22.98;;;6.00;99.90;;;;;;5089687;28;20085;-45
2022/01/24 04:46:08;;;;;;;45.42;21.92;;;6.00;99.90;;;;;;5089959;28;19965;-44
2022/01/24 04:56:59;;;;;;;48.42;23.30;;;6.00;99.90;;;;;;5081820;28;20024;-43
2022/01/24 04:59:25;;;;;;;49.20;24.10;;;6.00;99.90;;;;;;5089149;28;20016;-43
2022/01/24 05:01:51;;;;;;;54.65;25.38;;;6.00;99.90;;;;;;5089430;28;20020;-47
2022/01/24 05:04:16;;;;;;;55.22;25.65;;;6.00;99.90;;;;;;5089863;28;20063;-43
2022/01/24 05:06:42;;;;;;;51.30;25.13;;;6.00;99.90;;;;;;5088286;28;20085;-44
2022/01/24 05:09:07;;;;;;;53.55;25.23;;;6.00;99.90;;;;;;5088796;28;20024;-43
2022/01/24 05:12:23;;;;;;;49.45;23.55;;;6.00;99.90;;;;;;5089456;28;20024;-44
2022/01/24 05:25:19;;;;;;;60.17;26.05;;;5.90;99.90;;;;;;5079401;28;20022;-44
2022/01/24 05:27:44;;;;;;;53.53;25.67;;;5.90;99.90;;;;;;5084277;28;20020;-44
2022/01/24 05:30:11;;;;;;;57.17;25.65;;;5.90;99.90;;;;;;5087749;28;20032;-44
2022/01/24 05:32:37;;;;;;;67.78;29.75;;;5.90;99.90;;;;;;5089015;28;20032;-44
2022/01/24 05:35:03;;;;;;;61.03;28.73;;;5.90;99.90;;;;;;5089036;28;20103;-46
2022/01/24 05:37:29;;;;;;;65.63;28.48;;;5.90;99.90;;;;;;5088297;28;20040;-42
2022/01/24 05:39:55;;;;;;;62.08;27.63;;;5.90;99.90;;;;;;5088480;28;20378;-42
2022/01/24 05:42:21;;;;;;;62.17;27.10;;;6.00;99.90;;;;;;5070069;28;20027;-42
2022/01/24 05:44:49;;;;;;;63.22;29.55;;;5.90;99.90;;;;;;5053944;28;20052;-42
2022/01/24 05:47:15;;;;;;;70.35;31.35;;;5.90;99.90;;;;;;5048059;28;20032;-43
2022/01/24 05:49:40;;;;;;;62.08;29.17;;;5.90;99.90;;;;;;5048490;28;20036;-41
2022/01/24 05:52:09;;;;;;;67.15;29.85;;;5.90;99.90;;;;;;5063632;28;20621;-42
2022/01/24 05:54:36;;;;;;;70.32;32.22;;;5.90;99.90;;;;;;5047311;28;20257;-43
2022/01/24 05:57:02;;;;;;;67.45;30.42;;;5.90;99.90;;;;;;5048335;28;20021;-43
2022/01/24 05:59:27;;;;;;;67.90;30.88;;;5.90;99.90;;;;;;5047921;28;20028;-42
2022/01/24 06:01:53;;;;;;;64.65;28.20;;;5.90;99.90;;;;;;5048698;28;20386;-43
2022/01/24 06:04:18;;;;;;;62.85;27.77;;;5.90;99.90;;;;;;5048297;28;20032;-44
2022/01/24 06:06:44;;;;;;;63.38;28.35;;;5.90;99.90;;;;;;5048226;28;20033;-42
2022/01/24 06:09:09;;;;;;;67.03;28.63;;;5.90;99.90;;;;;;5047796;28;20175;-43
2022/01/24 06:11:35;;;;;;;65.65;29.92;;;5.90;99.90;;;;;;5048404;28;20048;-43
2022/01/24 06:14:02;;;;;;;66.80;28.80;;;5.90;99.90;;;;;;5048315;28;20568;-43
2022/01/24 06:16:28;;;;;;;67.65;31.13;;;5.90;99.90;;;;;;5048152;28;20517;-44
2022/01/24 06:18:53;;;;;;;64.13;30.13;;;5.90;99.90;;;;;;5047523;28;20029;-43
2022/01/24 06:21:19;;;;;;;62.28;29.75;;;5.90;99.90;;;;;;5047953;28;20052;-43
2022/01/24 06:23:44;;;;;;;59.22;28.15;;;5.90;99.90;;;;;;5048043;28;20108;-42
2022/01/24 06:26:10;;;;;;;57.35;28.33;;;5.90;99.90;;;;;;5047891;28;20528;-43
2022/01/24 06:28:36;;;;;;;54.55;26.58;;;5.90;99.90;;;;;;5047462;28;20029;-42
2022/01/24 06:31:02;;;;;;;63.92;30.25;;;5.90;99.90;;;;;;5047914;28;20103;-43
2022/01/24 06:33:27;;;;;;;58.00;27.80;;;5.90;99.90;;;;;;5048141;28;20033;-42
2022/01/24 06:35:52;;;;;;;55.92;27.42;;;5.90;99.90;;;;;;5047963;28;20100;-43
2022/01/24 06:38:18;;;;;;;57.38;28.10;;;5.90;99.90;;;;;;5047423;28;20470;-42
2022/01/24 06:40:43;;;;;;;57.42;27.65;;;5.90;99.90;;;;;;5047976;28;20103;-42
2022/01/24 06:43:09;;;;;;;57.00;28.00;;;5.90;99.90;;;;;;5047742;28;20029;-42
2022/01/24 06:45:34;;;;;;;56.75;27.23;;;5.90;99.90;;;;;;5047908;28;20450;-44
2022/01/24 06:48:00;;;;;;;54.58;26.02;;;5.90;99.90;;;;;;5047007;28;20029;-43
2022/01/24 06:50:26;;;;;;;53.28;26.48;;;5.90;99.90;;;;;;5047895;28;20095;-44
2022/01/24 06:52:51;;;;;;;57.58;26.52;;;5.90;99.90;;;;;;5047675;28;20033;-43
2022/01/24 06:55:17;;;;;;;49.40;25.05;;;5.90;99.90;;;;;;5047754;28;20111;-43
2022/01/24 06:57:43;;;;;;;52.60;27.42;;;5.90;99.90;;;;;;5047644;28;20029;-43
2022/01/24 07:00:09;;;;;;;50.28;25.23;;;5.90;99.90;;;;;;5051638;28;20056;-43
2022/01/24 07:02:35;;;;;;;51.00;25.85;;;5.90;99.90;;;;;;5051518;28;20032;-42
2022/01/24 07:05:00;;;;;;;51.67;25.67;;;5.90;99.90;;;;;;5051476;28;20025;-43
2022/01/24 07:07:26;;;;;;;52.50;24.88;;;5.90;99.90;;;;;;5050907;28;20044;-43
2022/01/24 07:09:52;;;;;;;43.30;22.80;;;5.90;99.90;;;;;;5051691;28;20029;-43
2022/01/24 07:12:17;;;;;;;48.40;24.85;;;5.90;99.90;;;;;;5051346;28;20367;-43
2022/01/24 07:14:44;;;;;;;40.70;21.73;;;5.90;99.90;;;;;;5051188;28;20082;-43
2022/01/24 07:19:50;;;;;;;;;;;6.00;99.90;;;;;;5051766;28;20437;-43
2022/01/24 07:22:15;;;;;;;42.30;20.30;;;5.90;99.90;;;;;;5051170;28;19904;-43
2022/01/24 07:24:42;;;;;;;41.00;21.73;;;5.90;99.90;;;;;;5051180;28;20036;-43
2022/01/24 07:27:07;;;;;;;40.40;21.13;;;5.90;99.90;;;;;;5051032;28;20498;-43
2022/01/24 07:29:33;;;;;;;41.30;21.60;;;5.90;99.90;;;;;;5050556;28;20072;-43
2022/01/24 07:31:59;;;;;;;47.83;23.77;;;5.90;99.90;;;;;;5050849;28;20394;-43
2022/01/24 07:34:24;;;;;;;40.65;21.15;;;5.90;99.90;;;;;;5050923;28;20082;-45
2022/01/24 07:36:51;;;;;;;41.20;22.23;;;5.90;99.90;;;;;;5051168;28;20021;-43
2022/01/24 07:39:17;;;;;;;43.97;23.35;;;6.00;99.90;;;;;;5050261;28;20013;-45
2022/01/24 07:41:46;;;;;;;44.17;22.67;;;6.00;99.90;;;;;;5049541;28;20409;-43
2022/01/24 07:44:13;;;;;;;44.95;22.13;;;6.00;99.90;;;;;;5050861;28;20031;-43
2022/01/24 07:46:39;;;;;;;40.63;22.95;;;6.00;99.90;;;;;;5050628;28;20051;-43
2022/01/24 07:49:07;;;;;;;44.55;23.25;;;6.00;99.90;;;;;;5049922;28;20124;-43
2022/01/24 07:51:34;;;;;;;39.90;22.45;;;6.00;99.90;;;;;;5050884;28;20116;-43
2022/01/24 07:53:59;;;;;;;47.80;22.55;;;6.00;99.90;;;;;;5050520;28;20021;-42
2022/01/24 07:56:25;;;;;;;34.13;20.35;;;6.00;99.90;;;;;;5050264;28;20017;-43
2022/01/24 07:58:50;;;;;;;39.08;21.60;;;6.00;99.90;;;;;;5049942;28;20112;-43
2022/01/24 08:01:16;;;;;;;44.70;23.60;;;6.00;99.90;;;;;;5050376;28;20112;-43
2022/01/24 08:03:43;;;;;;;43.53;22.05;;;6.00;99.90;;;;;;5050454;28;20029;-42
2022/01/24 08:06:08;;;;;;;46.50;22.48;;;6.00;99.90;;;;;;5050433;28;20036;-42
2022/01/24 08:08:34;;;;;;;38.10;20.98;;;6.00;99.90;;;;;;5049356;28;20029;-43
2022/01/24 08:11:00;;;;;;;40.33;21.38;;;6.00;99.90;;;;;;5050136;28;20513;-42
2022/01/24 08:13:25;;;;;;;40.58;22.73;;;6.00;99.90;;;;;;5049921;28;20074;-44
2022/01/24 08:15:51;;;;;;;43.55;22.90;;;6.10;99.90;;;;;;5049686;28;20025;-43
2022/01/24 08:18:17;;;;;;;42.88;21.10;;;6.10;99.90;;;;;;5049385;28;20490;-43
2022/01/24 08:20:42;;;;;;;43.47;22.58;;;6.10;99.90;;;;;;5049846;28;20031;-45
2022/01/24 08:23:08;;;;;;;39.78;21.70;;;6.10;99.90;;;;;;5050235;28;20075;-44
2022/01/24 08:25:34;;;;;;;42.47;22.15;;;6.10;99.90;;;;;;5050024;28;20504;-43
2022/01/24 08:28:00;;;;;;;37.58;20.10;;;6.10;99.90;;;;;;5047892;28;20063;-43
2022/01/24 08:30:25;;;;;;;41.05;20.70;;;6.10;99.90;;;;;;5049820;28;20091;-44
2022/01/24 08:32:51;;;;;;;42.88;22.50;;;6.20;99.90;;;;;;5049780;28;20540;-44
2022/01/24 08:35:19;;;;;;;42.38;21.48;;;6.20;99.90;;;;;;5049798;28;20427;-43
2022/01/24 08:37:44;;;;;;;44.70;22.90;;;6.20;99.90;;;;;;5048840;28;20115;-43
2022/01/24 08:40:20;;;;;;;40.67;22.55;;;6.20;99.90;;;;;;5049493;28;20104;-43
2022/01/24 08:42:54;;;;;;;45.55;23.13;;;6.20;99.90;;;;;;5051087;28;20025;-43
2022/01/24 08:48:04;;;;;;;36.17;18.45;;;6.20;99.90;;;;;;5057769;28;20058;-43
2022/01/24 08:50:30;;;;;;;40.25;21.85;;;6.20;99.90;;;;;;5067796;28;20455;-45
2022/01/24 08:53:03;;;;;;;43.33;21.83;;;6.20;99.90;;;;;;5068655;28;20417;-44
2022/01/24 08:55:33;;;;;;;36.90;20.40;;;6.30;99.90;;;;;;5056169;28;20017;-43
2022/01/24 08:58:00;;;;;;;37.10;20.20;;;6.30;99.90;;;;;;5065860;28;20031;-43
2022/01/24 09:00:26;;;;;;;37.92;20.17;;;6.30;99.90;;;;;;5054708;28;20115;-43
2022/01/24 09:02:52;;;;;;;37.40;19.38;;;6.30;99.90;;;;;;5063317;28;20021;-43
2022/01/24 09:05:18;;;;;;;39.63;22.30;;;6.30;99.90;;;;;;5061637;28;20025;-44
2022/01/24 09:07:44;;;;;;;41.45;22.38;;;6.30;99.90;;;;;;5050033;28;20033;-43
2022/01/24 09:10:11;;;;;;;38.15;20.63;;;6.30;99.90;;;;;;5064060;28;20366;-44
2022/01/24 09:12:37;;;;;;;41.40;21.65;;;6.30;99.90;;;;;;5068459;28;20024;-44
2022/01/24 09:15:03;;;;;;;36.08;20.45;;;6.30;99.90;;;;;;5070127;28;20028;-43
2022/01/24 09:17:29;;;;;;;38.08;21.08;;;6.30;99.90;;;;;;5062776;28;20052;-43
2022/01/24 09:19:54;;;;;;;38.17;21.00;;;6.30;99.90;;;;;;5063522;28;20060;-43
2022/01/24 09:22:20;;;;;;;36.60;20.77;;;6.30;99.90;;;;;;5059075;28;20048;-45
2022/01/24 09:24:45;;;;;;;42.83;24.13;;;6.30;99.90;;;;;;5054424;28;20033;-43
2022/01/24 09:27:11;;;;;;;44.05;21.65;;;6.30;99.90;;;;;;5065095;28;20039;-43
2022/01/24 09:29:37;;;;;;;41.05;21.83;;;6.30;99.90;;;;;;5079836;28;20122;-44
2022/01/24 09:32:03;;;;;;;38.88;20.33;;;6.30;99.90;;;;;;5068756;28;20035;-44
2022/01/24 09:34:28;;;;;;;35.25;18.30;;;6.30;99.90;;;;;;5067966;28;20074;-45
2022/01/24 09:36:54;;;;;;;38.95;20.50;;;6.40;99.90;;;;;;5058142;28;20028;-44
2022/01/24 09:39:20;;;;;;;40.67;20.98;;;6.40;99.90;;;;;;5054654;28;20100;-45
2022/01/24 09:41:46;;;;;;;37.42;21.15;;;6.40;99.90;;;;;;5050227;28;20055;-44
2022/01/24 09:44:11;;;;;;;39.45;21.75;;;6.50;99.90;;;;;;5066177;28;20107;-44
2022/01/24 09:46:38;;;;;;;38.63;20.48;;;6.50;99.90;;;;;;5070349;28;20039;-44
2022/01/24 09:49:05;;;;;;;34.28;19.17;;;6.50;99.90;;;;;;5059462;28;20060;-44
2022/01/24 09:51:33;;;;;;;40.50;20.13;;;6.50;99.90;;;;;;5059108;28;20040;-44
2022/01/24 09:53:58;;;;;;;43.75;22.83;;;6.60;99.90;;;;;;5058486;28;20579;-43
2022/01/24 09:56:24;;;;;;;37.88;20.60;;;6.50;99.90;;;;;;5056417;28;20025;-45
2022/01/24 09:58:50;;;;;;;37.60;19.52;;;6.60;99.90;;;;;;5056700;28;20397;-45
2022/01/24 10:01:18;;;;;;;42.70;22.77;;;6.60;99.90;;;;;;5060372;28;20059;-47
2022/01/24 10:04:25;;;;;;;42.45;22.75;;;6.60;99.90;;;;;;5057521;28;20053;-44
2022/01/24 10:07:15;;;;;;;41.78;21.17;;;6.60;99.90;;;;;;5058490;28;20051;-43
2022/01/24 10:09:45;;;;;;;39.90;22.10;;;6.60;99.90;;;;;;5063790;28;20032;-47
2022/01/24 10:17:49;;;;;;;41.05;22.48;;;6.60;99.90;;;;;;5054303;28;20040;-44
2022/01/24 10:20:35;;;;;;;48.42;23.52;;;6.50;99.90;;;;;;5059106;28;20410;-44
2022/01/24 10:23:09;;;;;;;39.30;21.20;;;6.50;99.90;;;;;;5058872;28;20413;-45
2022/01/24 10:25:59;;;;;;;38.92;20.90;;;6.50;99.90;;;;;;5059882;28;20021;-47
2022/01/24 10:28:32;;;;;;;40.23;20.80;;;6.60;99.90;;;;;;5058672;28;20374;-44
2022/01/24 10:31:18;;;;;;;46.75;22.17;;;6.50;99.90;;;;;;5058865;28;20032;-44
2022/01/24 10:34:17;;;;;;;39.83;19.42;;;6.50;99.90;;;;;;5062421;28;20034;-44
2022/01/24 10:36:51;;;;;;;40.83;19.65;;;6.50;99.90;;;;;;5060796;28;20036;-44
2022/01/24 10:39:30;;;;;;;37.25;20.35;;;6.60;99.90;;;;;;5062967;28;20078;-44
2022/01/24 10:44:48;;;;;;;38.88;19.58;;;6.60;99.90;;;;;;5062794;28;20058;-45
2022/01/24 10:47:18;;;;;;;41.58;20.90;;;6.50;99.90;;;;;;5063679;28;20121;-44
2022/01/24 10:49:45;;;;;;;39.83;20.35;;;6.50;99.90;;;;;;5059470;28;20413;-44
2022/01/24 10:52:14;;;;;;;33.17;18.38;;;6.50;99.90;;;;;;5059676;28;20364;-43
2022/01/24 10:54:40;;;;;;;36.80;18.95;;;6.40;99.90;;;;;;5062097;28;20031;-45
2022/01/24 10:57:05;;;;;;;37.47;18.83;;;6.40;99.90;;;;;;5058197;28;21014;-43
2022/01/24 10:59:33;;;;;;;38.83;18.83;;;6.40;99.90;;;;;;5059239;28;20012;-44
2022/01/24 11:02:01;;;;;;;34.40;18.08;;;6.50;99.90;;;;;;5062298;28;20028;-45
2022/01/24 11:04:28;;;;;;;37.92;18.75;;;6.40;99.90;;;;;;5060819;28;20490;-46
2022/01/24 11:06:56;;;;;;;38.75;18.83;;;6.40;99.90;;;;;;5058691;28;20025;-45
2022/01/24 11:09:26;;;;;;;33.50;17.15;;;6.50;99.90;;;;;;5061607;28;20027;-44
2022/01/24 11:11:56;;;;;;;35.90;18.40;;;6.50;99.90;;;;;;5060925;28;20231;-44
2022/01/24 11:14:24;;;;;;;39.25;17.05;;;6.60;99.90;;;;;;5061161;28;20020;-47
2022/01/24 11:16:51;;;;;;;39.88;19.35;;;6.50;99.90;;;;;;5060347;28;20486;-44
2022/01/24 11:19:27;;;;;;;36.22;18.77;;;6.60;99.90;;;;;;5060226;28;20139;-44
2022/01/24 11:21:54;;;;;;;37.45;19.60;;;6.60;99.90;;;;;;5061875;28;20025;-44
2022/01/24 11:24:27;;;;;;;39.38;18.33;;;6.50;99.90;;;;;;5059681;28;20063;-44
2022/01/24 11:26:53;;;;;;;34.90;17.42;;;6.50;99.90;;;;;;5062524;28;20040;-44
2022/01/24 11:29:20;;;;;;;35.35;17.73;;;6.50;99.90;;;;;;5062330;28;20033;-44
2022/01/24 11:32:18;;;;;;;34.63;18.38;;;6.50;99.90;;;;;;5058954;28;20017;-44
2022/01/24 11:34:49;;;;;;;31.60;17.13;;;6.50;99.90;;;;;;5063927;28;20021;-45
2022/01/24 11:37:33;;;;;;;33.22;16.60;;;6.50;99.90;;;;;;5060508;28;20048;-45
2022/01/24 11:39:59;;;;;;;33.65;16.38;;;6.50;99.90;;;;;;5062193;28;20032;-46
2022/01/24 11:42:32;;;;;;;37.15;18.40;;;6.50;99.90;;;;;;5062560;28;20066;-43
2022/01/24 11:45:04;;;;;;;33.60;17.20;;;6.50;99.90;;;;;;5061407;28;20036;-44
2022/01/24 11:47:31;;;;;;;50.90;26.20;;;6.60;99.90;;;;;;5063169;28;20021;-44
2022/01/24 11:49:58;;;;;;;42.33;19.85;;;6.60;99.90;;;;;;5061828;28;20036;-44
2022/01/24 11:52:34;;;;;;;34.35;18.45;;;6.60;99.90;;;;;;5061635;28;20017;-43
2022/01/24 11:55:15;;;;;;;35.60;17.77;;;6.60;99.90;;;;;;5059063;28;20016;-43
2022/01/24 11:57:50;;;;;;;31.33;17.27;;;6.60;99.90;;;;;;5067656;28;20032;-45
2022/01/24 12:00:15;;;;;;;41.70;19.50;;;6.60;99.90;;;;;;5073092;28;20059;-43
2022/01/24 12:02:46;;;;;;;33.47;16.60;;;6.60;99.90;;;;;;5071698;28;20060;-44
2022/01/24 12:05:20;;;;;;;32.38;16.85;;;6.60;99.90;;;;;;5069275;28;20095;-45
2022/01/24 12:08:01;;;;;;;35.85;17.50;;;6.60;99.90;;;;;;5059411;28;20033;-43
2022/01/24 12:10:37;;;;;;;33.47;17.70;;;6.60;99.90;;;;;;5061993;28;20055;-44
2022/01/24 12:13:19;;;;;;;41.10;19.65;;;6.60;99.90;;;;;;5068241;28;20695;-44
2022/01/24 12:15:54;;;;;;;34.60;16.73;;;6.60;99.90;;;;;;5071256;28;20033;-44
2022/01/24 12:18:26;;;;;;;31.25;17.27;;;6.50;99.90;;;;;;5063679;28;20031;-44
2022/01/24 12:21:07;;;;;;;35.92;18.13;;;6.50;99.90;;;;;;5051683;28;20037;-44
2022/01/24 12:23:49;;;;;;;39.70;17.98;;;6.60;99.90;;;;;;5055088;28;20028;-47
2022/01/24 12:26:15;;;;;;;33.35;16.80;;;6.50;99.90;;;;;;5067925;28;20405;-45
2022/01/24 12:28:44;;;;;;;34.50;18.08;;;6.50;99.90;;;;;;5071310;28;20032;-43
2022/01/24 12:31:23;;;;;;;29.45;16.05;;;6.60;99.90;;;;;;5061233;28;20019;-43
2022/01/24 12:33:54;;;;;;;32.80;16.55;;;6.50;99.90;;;;;;5069594;28;20020;-43
2022/01/24 12:36:47;;;;;;;33.95;16.70;;;6.50;99.90;;;;;;5065179;28;20020;-43
2022/01/24 12:39:19;;;;;;;33.83;16.13;;;6.50;99.90;;;;;;5062313;28;20034;-43
2022/01/24 12:41:54;;;;;;;32.13;16.80;;;6.50;99.90;;;;;;5070890;28;20031;-45
2022/01/24 12:47:03;;;;;;;32.25;15.85;;;6.60;99.90;;;;;;5055665;28;20098;-44
2022/01/24 12:49:30;;;;;;;31.67;15.55;;;6.60;99.90;;;;;;5059604;28;20502;-43
2022/01/24 12:52:03;;;;;;;31.30;15.65;;;6.60;99.90;;;;;;5059530;28;20024;-45
2022/01/24 12:54:34;;;;;;;29.33;15.07;;;6.60;99.90;;;;;;5060137;28;20028;-44
2022/01/24 12:57:02;;;;;;;30.90;16.75;;;6.60;99.90;;;;;;5057886;28;20020;-45
2022/01/24 13:00:07;;;;;;;36.88;17.98;;;6.60;99.90;;;;;;5060700;28;20032;-45
2022/01/24 13:02:34;;;;;;;32.38;17.45;;;6.50;99.90;;;;;;5057010;28;20123;-43
2022/01/24 13:05:20;;;;;;;27.95;15.20;;;6.60;99.90;;;;;;5058791;28;20017;-43
2022/01/24 13:07:55;;;;;;;34.78;16.65;;;6.50;99.90;;;;;;5060533;28;20039;-43
2022/01/24 13:10:24;;;;;;;35.50;16.13;;;6.60;99.90;;;;;;5067449;28;20048;-44
2022/01/24 13:13:05;;;;;;;33.50;16.85;;;6.50;99.90;;;;;;5058479;28;20025;-44
2022/01/24 13:21:15;;;;;;;35.53;17.95;;;6.60;99.90;;;;;;5057198;28;20496;-43
2022/01/24 13:23:44;;;;;;;39.75;19.15;;;6.60;99.90;;;;;;5058694;28;20029;-45
2022/01/24 13:26:10;;;;;;;34.55;17.48;;;6.60;99.90;;;;;;5059522;28;20032;-45
2022/01/24 13:28:36;;;;;;;39.08;19.02;;;6.50;99.90;;;;;;5054777;28;20041;-44
2022/01/24 13:31:03;;;;;;;38.72;20.50;;;6.60;99.90;;;;;;5055525;28;20036;-45
2022/01/24 13:33:32;;;;;;;43.65;18.98;;;6.60;99.90;;;;;;5060311;28;20028;-43
2022/01/24 13:36:04;;;;;;;40.88;22.02;;;6.60;99.90;;;;;;5053532;28;20024;-43
2022/01/24 13:38:34;;;;;;;37.17;20.08;;;6.60;99.90;;;;;;5054120;28;20042;-45
2022/01/24 13:41:10;;;;;;;40.20;20.85;;;6.60;99.90;;;;;;5070250;28;20473;-45
2022/01/24 13:43:50;;;;;;;33.90;18.45;;;6.60;99.90;;;;;;5068315;28;20574;-45
2022/01/24 13:46:27;;;;;;;37.55;18.35;;;6.60;99.90;;;;;;5073266;28;20108;-44
2022/01/24 13:48:56;;;;;;;35.95;19.25;;;6.60;99.90;;;;;;5063551;28;20048;-44
2022/01/24 13:51:38;;;;;;;38.88;20.33;;;6.60;99.90;;;;;;5057036;28;20033;-44
2022/01/24 13:54:12;;;;;;;39.20;19.42;;;6.60;99.90;;;;;;5057505;28;20025;-45
2022/01/24 13:56:44;;;;;;;35.75;18.67;;;6.60;99.90;;;;;;5055992;28;20032;-44
2022/01/24 13:59:19;;;;;;;36.05;18.92;;;6.60;99.90;;;;;;5055681;28;20386;-43
2022/01/24 14:01:52;;;;;;;32.42;17.27;;;6.60;99.90;;;;;;5060491;28;20037;-45
2022/01/24 14:04:30;;;;;;;29.80;16.92;;;6.60;99.90;;;;;;5057321;28;20427;-45
2022/01/24 14:06:57;;;;;;;28.88;16.23;;;6.60;99.90;;;;;;5057524;28;20064;-44
2022/01/24 14:09:32;;;;;;;27.95;15.00;;;6.60;99.90;;;;;;5060442;28;20017;-44
2022/01/24 14:11:57;;;;;;;25.55;13.95;;;6.60;99.90;;;;;;5061617;28;20478;-45
2022/01/24 14:14:29;;;;;;;30.23;14.50;;;6.60;99.90;;;;;;5060338;28;20027;-45
2022/01/24 14:17:06;;;;;;;26.08;14.35;;;6.60;99.90;;;;;;5058505;28;20021;-44
2022/01/24 14:19:33;;;;;;;39.65;19.25;;;6.60;99.90;;;;;;5050366;28;20545;-45
2022/01/24 14:22:20;;;;;;;26.38;15.18;;;6.60;99.90;;;;;;5051571;28;20463;-44
2022/01/24 14:24:50;;;;;;;26.70;14.93;;;6.60;99.90;;;;;;5051017;28;20107;-45
2022/01/24 14:27:39;;;;;;;24.00;14.02;;;6.60;99.90;;;;;;5050474;28;20028;-45
2022/01/24 14:30:06;;;;;;;21.20;11.93;;;6.60;99.90;;;;;;5052352;28;20025;-44
2022/01/24 14:32:34;;;;;;;23.58;11.57;;;6.60;99.90;;;;;;5052611;28;20017;-44
2022/01/24 14:35:06;;;;;;;18.05;10.70;;;6.60;99.90;;;;;;5051832;28;20083;-44
2022/01/24 14:37:55;;;;;;;16.50;10.18;;;6.60;99.90;;;;;;5064598;28;20025;-45
2022/01/24 14:40:46;;;;;;;16.65;10.13;;;6.60;99.90;;;;;;5071979;28;20048;-44
2022/01/24 14:46:09;;;;;;;18.83;10.10;;;6.50;99.90;;;;;;5072234;28;20028;-45
2022/01/24 14:48:50;;;;;;;18.42;10.45;;;6.50;99.90;;;;;;5071486;28;20039;-44
2022/01/24 14:51:18;;;;;;;15.40;9.35;;;6.50;99.90;;;;;;5071795;28;20025;-45
2022/01/24 14:53:44;;;;;;;16.13;9.48;;;6.60;99.90;;;;;;5072118;28;20378;-44